Terminal Aerodrome Forecast
Issued by NWS Wilmington, OH

Current Version | Previous Version | Graphics & Text | Print | Product List | Glossary On
Versions: 1 2 3 4 5 6 7 8 9 10 11 12 13 14 15 16 17 18 19 20 21
000
FTUS41 KILN 191100
TAFILN
TAF
KILN 191121Z 1912/2012 30004KT P6SM SCT030
     FM191500 24006KT P6SM SCT200
     FM200400 19004KT P6SM BKN200
     FM200900 20006KT P6SM BKN090=

USA.gov is the U.S. government's official web portal to all federal, state and local government web resources and services.